.
WxDataArchive / Data Records for 2016-05-26
2016-05-25 May 2016 2016-05-27

Data Records for Thursday, 26 May 2016

Time	Temp	Chill	HIndex	Humid	Dewpt	 Wind 	HiWind	WindDir	Rain 	Barom
-----	----	-----	------	-----	-----	------	------	-------	-----	-----
00:00	76.1	76.1	78.0	62	62.1	0	2	90	0.00	29.927 
00:05	76.1	76.1	78.0	62	62.1	0	2	90	0.00	29.927 
00:10	76.0	76.0	78.0	62	62.0	0	1	90	0.00	29.927 
00:15	76.0	76.0	78.0	62	62.0	0	2	292	0.00	29.927 
00:20	75.8	75.8	77.8	62	61.8	0	2	292	0.00	29.927 
00:25	75.8	75.8	77.8	62	61.8	0	1	292	0.00	29.927 
00:30	75.6	75.6	77.6	63	62.1	0	1	292	0.00	29.929 
00:35	75.4	75.4	77.5	63	61.9	0	0	---	0.00	29.929 
00:40	75.3	75.3	77.4	64	62.3	0	0	---	0.00	29.929 
00:45	75.1	75.1	77.2	64	62.1	0	1	292	0.00	29.935 
00:50	74.9	74.9	74.9	64	61.9	0	1	292	0.00	29.935 
00:55	74.9	74.9	74.9	65	62.3	0	0	---	0.00	29.935 
01:00	74.7	74.7	74.7	65	62.1	0	0	---	0.00	29.937 
01:05	74.6	74.6	74.6	65	62.0	0	1	292	0.00	29.937 
01:10	74.6	74.6	74.6	65	62.0	0	1	292	0.00	29.937 
01:15	74.4	74.4	74.4	65	61.8	0	1	292	0.00	29.935 
01:20	74.4	74.4	74.4	65	61.8	0	1	292	0.00	29.935 
01:25	74.2	74.2	74.2	66	62.1	0	0	---	0.00	29.935 
01:30	74.0	74.0	74.0	66	61.9	0	0	---	0.00	29.936 
01:35	73.9	73.9	73.9	66	61.8	0	0	---	0.00	29.936 
01:40	73.7	73.7	73.7	66	61.6	0	0	---	0.00	29.936 
01:45	73.5	73.5	73.5	67	61.9	0	0	---	0.00	29.933 
01:50	73.3	73.3	73.3	67	61.7	0	1	292	0.00	29.933 
01:55	73.3	73.3	73.3	67	61.7	0	0	---	0.00	29.933 
02:00	73.2	73.2	73.2	68	62.0	0	0	---	0.00	29.929 
02:05	73.0	73.0	73.0	68	61.8	0	0	---	0.00	29.929 
02:10	72.8	72.8	72.8	69	62.0	0	0	---	0.00	29.929 
02:15	72.7	72.7	72.7	70	62.3	0	0	---	0.00	29.927 
02:20	72.7	72.7	72.7	70	62.3	0	0	---	0.00	29.927 
02:25	72.5	72.5	72.5	70	62.1	0	0	---	0.00	29.927 
02:30	72.5	72.5	72.5	70	62.1	0	0	---	0.00	29.926 
02:35	72.5	72.5	72.5	70	62.1	0	0	---	0.00	29.926 
02:40	72.5	72.5	72.5	70	62.1	0	1	292	0.00	29.926 
02:45	72.3	72.3	72.3	71	62.4	0	0	---	0.00	29.927 
02:50	72.3	72.3	72.3	71	62.4	0	1	292	0.00	29.927 
02:55	72.3	72.3	72.3	71	62.4	0	1	292	0.00	29.927 
03:00	72.1	72.1	72.1	71	62.2	0	1	292	0.00	29.926 
03:05	72.1	72.1	72.1	71	62.2	0	1	292	0.00	29.926 
03:10	72.1	72.1	72.1	71	62.2	0	1	292	0.00	29.926 
03:15	72.1	72.1	72.1	71	62.2	0	0	---	0.00	29.926 
03:20	72.0	72.0	72.0	71	62.1	0	1	292	0.00	29.926 
03:25	71.8	71.8	71.8	72	62.3	0	1	292	0.00	29.926 
03:30	71.8	71.8	71.8	72	62.3	0	1	292	0.00	29.925 
03:35	71.8	71.8	71.8	72	62.3	0	1	292	0.00	29.925 
03:40	71.6	71.6	71.6	72	62.1	0	1	292	0.00	29.925 
03:45	71.6	71.6	71.6	72	62.1	0	1	292	0.00	29.928 
03:50	71.6	71.6	71.6	73	62.5	0	0	---	0.00	29.928 
03:55	71.5	71.5	71.5	73	62.4	0	1	292	0.00	29.928 
04:00	71.5	71.5	71.5	73	62.4	0	1	292	0.00	29.932 
04:05	71.5	71.5	71.5	73	62.4	0	0	---	0.00	29.932 
04:10	71.5	71.5	71.5	73	62.4	0	1	292	0.00	29.932 
04:15	71.3	71.3	71.3	73	62.2	0	0	---	0.00	29.930 
04:20	71.3	71.3	71.3	73	62.2	0	0	---	0.00	29.930 
04:25	71.3	71.3	71.3	74	62.6	0	0	---	0.00	29.930 
04:30	71.1	71.1	71.1	74	62.4	0	0	---	0.00	29.926 
04:35	71.1	71.1	71.1	74	62.4	0	1	292	0.00	29.926 
04:40	70.9	70.9	70.9	74	62.2	0	1	292	0.00	29.926 
04:45	70.9	70.9	70.9	74	62.2	0	0	---	0.00	29.925 
04:50	70.8	70.8	70.8	75	62.5	0	0	---	0.00	29.925 
04:55	70.6	70.6	70.6	75	62.3	0	0	---	0.00	29.925 
05:00	70.4	70.4	70.4	76	62.5	0	1	292	0.00	29.925 
05:05	70.4	70.4	70.4	76	62.5	0	0	---	0.00	29.925 
05:10	70.3	70.3	70.3	76	62.4	0	0	---	0.00	29.925 
05:15	70.1	70.1	70.1	77	62.5	0	0	---	0.00	29.928 
05:20	69.9	69.9	69.9	77	62.3	0	0	---	0.00	29.928 
05:25	69.9	69.9	69.9	77	62.3	0	0	---	0.00	29.928 
05:30	69.8	69.8	69.8	77	62.3	0	0	---	0.00	29.926 
05:35	69.8	69.8	69.8	78	62.6	0	0	---	0.00	29.926 
05:40	69.6	69.6	69.6	78	62.4	0	1	292	0.00	29.926 
05:45	69.6	69.6	69.6	78	62.4	0	1	292	0.00	29.927 
05:50	69.4	69.4	69.4	78	62.2	0	0	---	0.00	29.927 
05:55	69.3	69.3	69.3	78	62.1	0	0	---	0.00	29.927 
06:00	69.1	69.1	69.1	79	62.3	0	0	---	0.00	29.928 
06:05	68.9	68.9	68.9	79	62.1	0	0	---	0.00	29.928 
06:10	68.6	68.6	68.6	80	62.2	0	0	---	0.00	29.928 
06:15	68.4	68.4	68.4	80	62.0	0	0	---	0.00	29.927 
06:20	68.3	68.3	68.3	81	62.2	0	0	---	0.00	29.927 
06:25	68.1	68.1	68.1	81	62.0	0	0	---	0.00	29.927 
06:30	67.9	67.9	67.9	82	62.2	0	0	---	0.00	29.930 
06:35	67.6	67.6	67.6	82	61.9	0	0	---	0.00	29.930 
06:40	67.4	67.4	67.4	82	61.7	0	0	---	0.00	29.930 
06:45	67.4	67.4	67.4	83	62.0	0	0	---	0.00	29.932 
06:50	67.3	67.3	67.3	83	62.0	0	0	---	0.00	29.932 
06:55	67.3	67.3	67.3	84	62.3	0	0	---	0.00	29.932 
07:00	67.4	67.4	67.4	84	62.4	0	0	---	0.00	29.932 
07:05	67.4	67.4	67.4	84	62.4	0	0	---	0.00	29.932 
07:10	67.4	67.4	67.4	84	62.4	0	0	---	0.00	29.932 
07:15	67.6	67.6	67.6	84	62.6	0	1	292	0.00	29.934 
07:20	67.6	67.6	67.6	84	62.6	0	0	---	0.00	29.934 
07:25	67.8	67.8	67.8	84	62.8	0	0	---	0.00	29.934 
07:30	68.1	68.1	68.1	84	63.1	0	0	---	0.00	29.933 
07:35	68.3	68.3	68.3	84	63.3	0	1	292	0.00	29.933 
07:40	68.6	68.6	68.6	83	63.2	0	0	---	0.00	29.933 
07:45	68.8	68.8	68.8	83	63.4	0	0	---	0.00	29.941 
07:50	69.1	69.1	69.1	82	63.4	0	1	292	0.00	29.941 
07:55	69.6	69.6	69.6	81	63.5	0	1	292	0.00	29.941 
08:00	70.1	70.1	70.1	80	63.6	0	1	292	0.00	29.944 
08:05	70.6	70.6	70.6	79	63.8	0	1	292	0.00	29.944 
08:10	71.1	71.1	71.1	78	63.9	0	3	90	0.00	29.944 
08:15	71.5	71.5	71.5	77	63.9	0	2	90	0.00	29.942 
08:20	71.8	71.8	71.8	76	63.8	0	3	90	0.00	29.942 
08:25	72.1	72.1	72.1	76	64.1	0	1	90	0.00	29.942 
08:30	72.3	72.3	72.3	76	64.3	0	3	90	0.00	29.939 
08:35	72.8	72.8	72.8	75	64.4	0	2	90	0.00	29.939 
08:40	73.0	73.0	73.0	75	64.6	0	2	90	0.00	29.939 
08:45	73.2	73.2	73.2	74	64.4	0	2	90	0.00	29.946 
08:50	73.2	73.2	73.2	74	64.4	0	1	90	0.00	29.946 
08:55	73.0	73.0	73.0	74	64.2	0	1	90	0.00	29.946 
09:00	73.0	73.0	73.0	75	64.6	0	2	90	0.00	29.944 
09:05	73.0	73.0	73.0	75	64.6	0	2	90	0.00	29.944 
09:10	73.5	73.5	73.5	75	65.1	0	1	90	0.00	29.944 
09:15	73.9	73.9	73.9	73	64.7	0	2	90	0.00	29.938 
09:20	74.2	74.2	74.2	74	65.4	0	1	90	0.00	29.938 
09:25	74.7	74.7	74.7	73	65.5	0	1	90	0.00	29.938 
09:30	75.1	75.1	76.6	72	65.4	0	1	90	0.00	29.932 
09:35	75.3	75.3	76.9	71	65.2	0	1	90	0.00	29.932 
09:40	75.3	75.3	77.0	70	64.8	0	1	90	0.00	29.932 
09:45	75.1	75.1	76.6	72	65.4	0	1	90	0.00	29.930 
09:50	74.9	74.9	74.9	71	64.8	0	2	90	0.00	29.930 
09:55	75.3	75.3	76.8	72	65.6	0	2	90	0.00	29.930 
10:00	74.9	74.9	74.9	71	64.8	1	3	90	0.00	29.929 
10:05	74.7	74.7	74.7	72	65.1	0	2	90	0.00	29.929 
10:10	74.6	74.6	74.6	73	65.4	1	4	292	0.00	29.929 
10:15	74.7	74.7	74.7	73	65.5	0	2	292	0.00	29.929 
10:20	74.9	74.9	74.9	73	65.6	0	2	292	0.00	29.929 
10:25	75.6	75.6	77.0	73	66.3	0	2	292	0.00	29.929 
10:30	76.0	76.0	77.6	71	65.9	0	2	292	0.00	29.928 
10:35	76.3	76.3	77.9	71	66.2	0	1	292	0.00	29.928 
10:40	77.0	77.0	78.8	69	66.0	0	2	292	0.00	29.928 
10:45	77.2	77.2	79.0	68	65.8	0	2	292	0.00	29.924 
10:50	77.4	77.4	79.2	68	66.0	0	1	292	0.00	29.924 
10:55	77.9	77.9	79.8	66	65.6	0	2	292	0.00	29.924 
11:00	78.5	78.5	80.5	66	66.2	0	1	292	0.00	29.923 
11:05	78.5	78.5	80.4	65	65.7	0	4	292	0.00	29.923 
11:10	79.0	79.0	80.9	63	65.3	0	2	292	0.00	29.923 
11:15	79.6	79.6	81.7	64	66.3	0	1	292	0.00	29.925 
11:20	79.9	79.9	81.8	61	65.2	0	1	292	0.00	29.925 
11:25	79.9	79.9	81.8	61	65.2	0	1	292	0.00	29.925 
11:30	80.1	80.1	81.9	60	64.9	0	3	68	0.00	29.930 
11:35	79.8	79.8	81.6	60	64.7	0	2	22	0.00	29.930 
11:40	79.4	79.4	81.3	62	65.2	0	2	22	0.00	29.930 
11:45	79.6	79.6	81.6	63	65.9	0	2	22	0.00	29.928 
11:50	79.9	79.9	81.8	61	65.2	0	1	22	0.00	29.928 
11:55	79.9	79.9	81.6	59	64.3	0	3	292	0.00	29.928 
12:00	79.8	79.8	81.8	62	65.6	1	3	292	0.00	29.933 
12:05	80.1	80.1	82.2	62	65.9	0	3	292	0.00	29.933 
12:10	80.1	80.1	81.8	59	64.5	1	4	292	0.00	29.933 
12:15	79.6	79.6	81.3	60	64.5	1	4	292	0.00	29.943 
12:20	79.4	79.4	81.2	61	64.8	1	4	292	0.00	29.943 
12:25	79.2	79.2	81.0	61	64.6	0	4	112	0.00	29.943 
12:30	79.9	79.9	81.8	61	65.2	0	4	112	0.00	29.935 
12:35	80.3	80.3	82.3	61	65.6	1	5	270	0.00	29.935 
12:40	80.9	80.9	83.1	61	66.2	0	3	270	0.00	29.935 
12:45	81.1	81.1	83.0	59	65.4	0	3	270	0.00	29.927 
12:50	81.1	81.1	82.9	58	64.9	0	3	270	0.00	29.927 
12:55	81.4	81.4	83.3	58	65.2	0	3	270	0.00	29.927 
13:00	81.2	81.2	82.9	57	64.5	1	3	270	0.00	29.926 
13:05	81.1	81.1	82.9	58	64.9	0	2	270	0.00	29.926 
13:10	81.1	81.1	82.9	58	64.9	1	4	270	0.00	29.926 
13:15	80.9	80.9	82.5	57	64.2	1	3	270	0.00	29.926 
13:20	80.7	80.7	82.3	57	64.0	0	2	270	0.00	29.926 
13:25	80.3	80.3	81.8	57	63.7	1	3	270	0.00	29.926 
13:30	79.9	79.9	81.5	58	63.8	0	1	270	0.00	29.928 
13:35	79.6	79.6	81.2	58	63.5	0	2	270	0.00	29.928 
13:40	79.4	79.4	81.1	60	64.3	1	3	270	0.00	29.928 
13:45	79.0	79.0	80.6	59	63.4	0	3	270	0.00	29.925 
13:50	79.0	79.0	80.7	60	63.9	0	2	270	0.00	29.925 
13:55	79.0	79.0	80.6	59	63.4	1	4	270	0.00	29.925 
14:00	78.6	78.6	80.3	60	63.5	1	4	270	0.00	29.920 
14:05	78.5	78.5	80.2	60	63.4	0	2	270	0.00	29.920 
14:10	78.3	78.3	80.0	61	63.7	0	2	270	0.00	29.920 
14:15	78.3	78.3	80.1	63	64.6	0	2	270	0.00	29.905 
14:20	78.8	78.8	80.6	62	64.7	1	3	270	0.00	29.905 
14:25	79.6	79.6	81.6	63	65.9	0	2	270	0.00	29.905 
14:30	80.3	80.3	82.3	61	65.6	1	4	270	0.00	29.889 
14:35	80.5	80.5	82.4	60	65.3	0	4	270	0.00	29.889 
14:40	81.1	81.1	83.0	59	65.4	0	4	270	0.00	29.889 
14:45	81.6	81.6	83.9	60	66.3	0	1	270	0.00	29.880 
14:50	82.0	82.0	84.1	58	65.7	0	4	270	0.00	29.880 
14:55	82.2	82.2	84.3	58	65.9	0	1	68	0.00	29.880 
15:00	82.6	82.6	84.7	57	65.8	0	4	68	0.00	29.866 
15:05	82.4	82.4	84.4	57	65.6	1	6	68	0.00	29.866 
15:10	82.2	82.2	84.2	57	65.4	1	4	90	0.00	29.866 
15:15	82.4	82.4	84.6	58	66.1	0	2	90	0.00	29.862 
15:20	82.4	82.4	84.6	58	66.1	1	4	90	0.00	29.862 
15:25	82.8	82.8	85.0	57	66.0	0	2	90	0.00	29.862 
15:30	83.2	83.2	85.3	56	65.8	0	2	45	0.00	29.862 
15:35	83.4	83.4	85.8	57	66.5	1	3	45	0.00	29.862 
15:40	83.4	83.4	85.6	56	66.0	0	2	45	0.00	29.862 
15:45	83.6	83.6	85.9	56	66.2	0	1	0	0.00	29.863 
15:50	84.0	84.0	85.8	53	65.0	0	1	0	0.00	29.863 
15:55	84.0	84.0	85.8	53	65.0	0	3	0	0.00	29.863 
16:00	84.1	84.1	85.9	53	65.1	0	2	22	0.00	29.865 
16:05	84.0	84.0	85.1	50	63.3	1	4	90	0.00	29.865 
16:10	84.0	84.0	85.6	52	64.4	0	2	45	0.00	29.865 
16:15	84.0	84.0	85.3	51	63.9	1	3	90	0.00	29.874 
16:20	83.6	83.6	84.6	50	63.0	1	4	90	0.00	29.874 
16:25	83.6	83.6	85.2	53	64.6	1	4	90	0.00	29.874 
16:30	83.6	83.6	85.5	54	65.2	0	2	112	0.00	29.865 
16:35	83.4	83.4	85.2	54	65.0	1	4	112	0.00	29.865 
16:40	83.2	83.2	84.7	53	64.3	0	3	112	0.00	29.865 
16:45	83.0	83.0	85.1	56	65.7	0	1	112	0.00	29.860 
16:50	83.4	83.4	85.2	54	65.0	0	1	112	0.00	29.860 
16:55	84.0	84.0	85.8	53	65.0	0	2	112	0.00	29.860 
17:00	84.1	84.1	85.3	50	63.4	0	3	112	0.00	29.845 
17:05	84.1	84.1	85.0	49	62.8	0	1	112	0.00	29.845 
17:10	84.1	84.1	85.3	50	63.4	0	1	112	0.00	29.845 
17:15	84.1	84.1	85.7	52	64.5	0	1	112	0.00	29.844 
17:20	84.1	84.1	85.5	51	64.0	0	2	112	0.00	29.844 
17:25	83.8	83.8	84.9	50	63.1	1	3	112	0.00	29.844 
17:30	83.8	83.8	85.1	51	63.7	0	1	112	0.00	29.857 
17:35	83.6	83.6	84.6	50	63.0	0	1	112	0.00	29.857 
17:40	83.2	83.2	84.3	51	63.2	1	3	112	0.00	29.857 
17:45	82.8	82.8	83.8	51	62.8	1	4	112	0.00	29.855 
17:50	82.6	82.6	83.6	51	62.6	0	3	68	0.00	29.855 
17:55	82.4	82.4	83.2	50	61.9	0	3	68	0.00	29.855 
18:00	82.4	82.4	83.2	50	61.9	0	2	68	0.00	29.854 
18:05	82.2	82.2	83.0	50	61.7	0	2	292	0.00	29.854 
18:10	82.2	82.2	83.0	50	61.7	0	1	292	0.00	29.854 
18:15	82.2	82.2	82.7	48	60.5	0	5	68	0.00	29.855 
18:20	82.2	82.2	82.7	48	60.5	0	1	68	0.00	29.855 
18:25	82.2	82.2	82.5	47	59.9	0	3	292	0.00	29.855 
18:30	82.0	82.0	82.3	47	59.8	1	5	292	0.00	29.854 
18:35	81.8	81.8	82.3	48	60.2	0	2	292	0.00	29.854 
18:40	81.6	81.6	82.2	49	60.6	0	2	292	0.00	29.854 
18:45	81.4	81.4	82.1	50	60.9	0	3	0	0.00	29.851 
18:50	81.4	81.4	82.1	50	60.9	0	1	0	0.00	29.851 
18:55	81.4	81.4	82.3	51	61.5	0	2	0	0.00	29.851 
19:00	81.2	81.2	81.9	50	60.8	0	2	0	0.00	29.841 
19:05	81.2	81.2	81.9	50	60.8	0	2	338	0.00	29.841 
19:10	81.1	81.1	81.8	50	60.7	0	2	338	0.00	29.841 
19:15	81.1	81.1	81.8	50	60.7	0	1	338	0.00	29.835 
19:20	81.1	81.1	81.8	50	60.7	0	2	338	0.00	29.835 
19:25	81.1	81.1	81.8	50	60.7	0	2	338	0.00	29.835 
19:30	81.1	81.1	81.8	50	60.7	1	4	0	0.00	29.836 
19:35	81.1	81.1	81.8	50	60.7	0	1	90	0.00	29.836 
19:40	81.1	81.1	81.4	46	58.3	0	3	45	0.00	29.836 
19:45	81.2	81.2	81.5	46	58.4	0	1	45	0.00	29.830 
19:50	81.2	81.2	81.5	46	58.4	0	1	45	0.00	29.830 
19:55	81.2	81.2	81.3	45	57.8	0	1	45	0.00	29.830 
20:00	81.2	81.2	81.5	46	58.4	0	0	---	0.00	29.822 
20:05	81.1	81.1	82.0	51	61.2	0	3	45	0.00	29.822 
20:10	80.9	80.9	82.0	53	62.1	0	3	68	0.00	29.822 
20:15	80.3	80.3	81.5	54	62.1	0	2	68	0.00	29.830 
20:20	79.9	79.9	81.2	55	62.3	0	2	45	0.00	29.830 
20:25	79.6	79.6	80.9	55	62.0	0	1	45	0.00	29.830 
20:30	79.0	79.0	80.4	56	61.9	0	2	45	0.00	29.832 
20:35	78.6	78.6	80.0	56	61.6	0	4	90	0.00	29.832 
20:40	78.3	78.3	79.8	57	61.8	0	2	45	0.00	29.832 
20:45	77.9	77.9	79.5	57	61.4	0	2	22	0.00	29.837 
20:50	77.7	77.7	79.3	57	61.2	0	1	22	0.00	29.837 
20:55	77.6	77.6	79.2	58	61.6	0	0	---	0.00	29.837 
21:00	77.2	77.2	78.9	58	61.3	0	3	270	0.00	29.853 
21:05	77.0	77.0	78.8	58	61.1	0	1	270	0.00	29.853 
21:10	76.8	76.8	78.6	58	60.9	0	0	---	0.00	29.853 
21:15	76.7	76.7	78.5	58	60.8	0	1	270	0.00	29.863 
21:20	76.5	76.5	78.4	59	61.1	0	0	---	0.00	29.863 
21:25	76.3	76.3	78.2	59	60.9	0	0	---	0.00	29.863 
21:30	76.1	76.1	78.1	60	61.2	0	1	270	0.00	29.876 
21:35	76.0	76.0	78.0	60	61.1	0	1	270	0.00	29.876 
21:40	75.8	75.8	77.8	61	61.4	0	0	---	0.00	29.876 
21:45	75.6	75.6	77.7	61	61.2	0	1	270	0.00	29.875 
21:50	75.4	75.4	77.5	62	61.5	0	1	270	0.00	29.875 
21:55	75.4	75.4	77.5	62	61.5	0	0	---	0.00	29.875 
22:00	75.3	75.3	77.5	62	61.4	0	1	270	0.00	29.884 
22:05	75.1	75.1	77.3	62	61.2	0	1	270	0.00	29.884 
22:10	74.9	74.9	74.9	63	61.4	0	0	---	0.00	29.884 
22:15	74.7	74.7	74.7	63	61.2	0	1	270	0.00	29.887 
22:20	74.6	74.6	74.6	63	61.2	0	1	270	0.00	29.887 
22:25	74.6	74.6	74.6	64	61.6	0	1	270	0.00	29.887 
22:30	74.4	74.4	74.4	64	61.4	0	1	270	0.00	29.886 
22:35	74.2	74.2	74.2	64	61.2	0	1	270	0.00	29.886 
22:40	74.0	74.0	74.0	64	61.0	0	1	270	0.00	29.886 
22:45	74.0	74.0	74.0	65	61.5	0	2	270	0.00	29.896 
22:50	73.9	73.9	73.9	65	61.4	0	2	270	0.00	29.896 
22:55	73.9	73.9	73.9	64	60.9	0	1	270	0.00	29.896 
23:00	73.7	73.7	73.7	64	60.7	0	2	270	0.00	29.906 
23:05	73.7	73.7	73.7	64	60.7	0	1	270	0.00	29.906 
23:10	73.5	73.5	73.5	64	60.6	0	2	292	0.00	29.906 
23:15	73.5	73.5	73.5	64	60.6	0	2	292	0.00	29.909 
23:20	73.5	73.5	73.5	65	61.0	0	3	292	0.00	29.909 
23:25	73.3	73.3	73.3	65	60.8	0	2	292	0.00	29.909 
23:30	73.3	73.3	73.3	65	60.8	0	2	292	0.00	29.901 
23:35	73.2	73.2	73.2	66	61.1	0	2	292	0.00	29.901 
23:40	72.8	72.8	72.8	66	60.8	0	1	292	0.00	29.901 
23:45	72.7	72.7	72.7	67	61.1	0	0	---	0.00	29.903 
23:50	72.5	72.5	72.5	68	61.3	0	1	292	0.00	29.903 
23:55	72.3	72.3	72.3	69	61.5	0	3	292	0.00	29.903 

CoCoRaHS
IN-AL-39
A2 Web Hosting
Creative Commons License
GoDaddy
search engine by freefind advanced

loaded 2018-11-16 10:40:12 • last modified 2010-11-18 10:43:29
Privacy PolicyDisclaimer
• wx.awcolley.com is powered by PmWiki v.2002016 •
• all content (unless otherwise noted) © 2018 A W Colley